Time;durP1;ratioP1;P1;durP2;ratioP2;P2;SDS_P1;SDS_P2;PMS_P1;PMS_P2;Temp;Humidity;BMP_temperature;BMP_pressure;BME280_temperature;BME280_humidity;BME280_pressure;Samples;Min_cycle;Max_cycle;Signal;HPM_P1;HPM_P2
2021/03/02 00:00:14;;;;;;;14.27;8.30;;;0.10;99.90;-1.40;98479.00;;;;5031236;28;20506;-83
2021/03/02 00:03:03;;;;;;;10.37;6.67;;;0.10;99.90;-1.40;98477.00;;;;5024566;28;20456;-83
2021/03/02 00:05:51;;;;;;;15.53;8.93;;;0.10;99.90;-1.30;98470.00;;;;5024058;28;20432;-84
2021/03/02 00:08:39;;;;;;;17.37;9.10;;;0.10;99.90;-1.30;98478.00;;;;5033656;28;20464;-83
2021/03/02 00:11:29;;;;;;;13.47;7.97;;;0.00;99.90;-1.20;98482.00;;;;5029840;28;20460;-83
2021/03/02 00:14:17;;;;;;;18.37;7.63;;;0.00;99.90;-1.50;98480.00;;;;5026478;28;20815;-83
2021/03/02 00:17:17;;;;;;;9.63;7.63;;;0.00;99.90;-1.40;98477.00;;;;5022463;28;20471;-83
2021/03/02 00:20:09;;;;;;;17.87;9.53;;;0.00;99.90;-1.40;98481.00;;;;5033648;28;20480;-83
2021/03/02 00:23:00;;;;;;;11.47;7.97;;;0.00;99.90;-1.30;98474.00;;;;5033024;28;20546;-82
2021/03/02 00:25:51;;;;;;;12.23;7.80;;;0.00;99.90;-1.30;98485.00;;;;5041670;28;20432;-82
2021/03/02 00:28:41;;;;;;;12.63;8.37;;;0.00;99.90;-1.40;98473.00;;;;5032982;28;20510;-82
2021/03/02 00:31:32;;;;;;;13.50;7.30;;;0.00;99.90;-1.60;98479.00;;;;5027604;28;20466;-82
2021/03/02 00:34:21;;;;;;;17.47;9.97;;;-0.10;99.90;-1.50;98476.00;;;;5016547;28;20558;-82
2021/03/02 00:37:09;;;;;;;16.30;7.93;;;-0.10;99.90;-1.30;98481.00;;;;5028936;28;20433;-84
2021/03/02 00:39:57;;;;;;;17.17;9.03;;;-0.10;99.90;-1.40;98482.00;;;;5030996;28;20536;-82
2021/03/02 00:42:45;;;;;;;13.67;8.70;;;-0.10;99.90;-1.50;98472.00;;;;5029829;28;21027;-84
2021/03/02 00:45:34;;;;;;;13.93;8.40;;;-0.10;99.90;-1.70;98471.00;;;;5022262;28;20432;-83
2021/03/02 00:48:22;;;;;;;12.70;7.73;;;-0.20;99.90;-1.30;98479.00;;;;5033524;28;20772;-83
2021/03/02 00:51:10;;;;;;;10.87;8.17;;;-0.20;99.90;-1.20;98481.00;;;;5031733;28;20492;-83
2021/03/02 00:53:58;;;;;;;15.10;9.40;;;-0.10;99.90;-1.10;98477.00;;;;5031664;28;20440;-83
2021/03/02 00:56:46;;;;;;;12.23;8.37;;;0.00;99.90;-1.20;98482.00;;;;5031027;28;20436;-82
2021/03/02 00:59:33;;;;;;;17.80;8.60;;;0.00;99.90;-1.50;98465.00;;;;5030575;28;20814;-81
2021/03/02 01:02:24;;;;;;;13.83;8.07;;;0.00;99.90;-1.70;98465.00;;;;5044673;28;20482;-83
2021/03/02 01:05:13;;;;;;;12.77;9.27;;;-0.10;99.90;-1.80;98464.00;;;;5031919;28;20432;-82
2021/03/02 01:08:01;;;;;;;14.03;10.50;;;-0.20;99.90;-1.80;98470.00;;;;5034294;28;20446;-84
2021/03/02 01:10:48;;;;;;;15.43;9.17;;;-0.30;99.90;-1.80;98465.00;;;;5032553;28;20483;-84
2021/03/02 01:13:36;;;;;;;18.50;9.27;;;-0.30;99.90;-1.80;98455.00;;;;5033019;28;21027;-84
2021/03/02 01:16:24;;;;;;;15.43;9.03;;;-0.40;99.90;-1.70;98456.00;;;;5019751;28;20732;-83
2021/03/02 01:19:13;;;;;;;17.57;9.37;;;-0.40;99.90;-1.50;98452.00;;;;5038320;28;20476;-82
2021/03/02 01:22:01;;;;;;;16.33;8.77;;;-0.30;99.90;-1.60;98448.00;;;;5022418;28;20542;-83
2021/03/02 01:24:49;;;;;;;12.30;8.00;;;-0.30;99.90;-1.70;98448.00;;;;5022579;28;20884;-82
2021/03/02 01:27:37;;;;;;;12.87;9.70;;;-0.30;99.90;-1.60;98449.00;;;;5029893;28;20532;-84
2021/03/02 01:30:26;;;;;;;13.50;8.17;;;-0.30;99.90;-1.70;98434.00;;;;5031162;28;20476;-83
2021/03/02 01:33:14;;;;;;;13.07;8.53;;;-0.30;99.90;-1.80;98436.00;;;;5023268;28;21032;-83
2021/03/02 01:36:04;;;;;;;17.30;8.93;;;-0.30;99.90;-1.70;98433.00;;;;5022241;28;20421;-83
2021/03/02 01:38:52;;;;;;;19.10;9.30;;;-0.30;99.90;-1.60;98443.00;;;;5019914;28;20522;-83
2021/03/02 01:41:41;;;;;;;14.17;8.13;;;-0.30;99.90;-1.60;98439.00;;;;5033242;28;20459;-83
2021/03/02 01:44:31;;;;;;;14.00;8.90;;;-0.20;99.90;-1.70;98422.00;;;;5031375;28;20514;-83
2021/03/02 01:47:19;;;;;;;16.73;9.90;;;-0.30;99.90;-1.90;98420.00;;;;5028474;28;20790;-82
2021/03/02 01:50:10;;;;;;;12.23;9.67;;;-0.40;99.90;-2.10;98422.00;;;;5025142;28;20847;-83
2021/03/02 01:52:58;;;;;;;12.80;9.37;;;-0.50;99.90;-2.20;98415.00;;;;5029656;28;20460;-83
2021/03/02 01:55:46;;;;;;;14.63;8.87;;;-0.60;99.90;-2.20;98415.00;;;;5032051;28;20578;-82
2021/03/02 01:58:34;;;;;;;15.37;9.43;;;-0.70;99.90;-2.20;98420.00;;;;5032345;28;20971;-83
2021/03/02 02:01:22;;;;;;;14.93;10.03;;;-0.70;99.90;-2.20;98417.00;;;;5038388;28;20488;-82
2021/03/02 02:04:16;;;;;;;19.07;10.27;;;-0.80;99.90;-2.10;98425.00;;;;5039501;28;20455;-83
2021/03/02 02:07:11;;;;;;;16.37;10.07;;;-0.80;99.90;-2.10;98409.00;;;;5038657;28;20467;-83
2021/03/02 02:10:13;;;;;;;19.80;9.37;;;-0.80;99.90;-2.00;98413.00;;;;5020169;28;20822;-82
2021/03/02 02:13:07;;;;;;;13.80;8.67;;;-0.60;99.90;-2.10;98411.00;;;;5021565;28;20850;-82
2021/03/02 02:15:58;;;;;;;10.37;7.57;;;-0.70;99.90;-2.20;98411.00;;;;5028491;28;20466;-82
2021/03/02 02:18:48;;;;;;;14.83;9.27;;;-0.70;99.90;-2.40;98405.00;;;;5031069;28;20474;-84
2021/03/02 02:21:50;;;;;;;16.70;9.50;;;-0.80;99.90;-2.50;98387.00;;;;5026682;28;20444;-83
2021/03/02 02:24:52;;;;;;;11.03;8.03;;;-0.90;99.90;-2.60;98401.00;;;;5022505;28;20428;-83
2021/03/02 02:27:42;;;;;;;15.27;9.70;;;-0.90;99.90;-2.40;98390.00;;;;5030092;28;20451;-83
2021/03/02 02:30:31;;;;;;;14.17;10.37;;;-1.00;99.90;-2.40;98403.00;;;;5032474;28;20471;-83
2021/03/02 02:33:21;;;;;;;12.13;8.10;;;-1.00;99.90;-2.40;98401.00;;;;5017044;28;20549;-84
2021/03/02 02:36:12;;;;;;;11.80;8.47;;;-1.00;99.90;-2.20;98409.00;;;;5033809;28;20448;-83
2021/03/02 02:39:01;;;;;;;13.83;9.30;;;-1.00;99.90;-2.20;98405.00;;;;5024122;28;20612;-83
2021/03/02 02:41:51;;;;;;;18.50;9.37;;;-0.90;99.90;-2.20;98412.00;;;;5021691;28;20463;-82
2021/03/02 02:44:41;;;;;;;13.50;8.73;;;-0.90;99.90;-2.20;98413.00;;;;5033227;28;20436;-81
2021/03/02 02:47:30;;;;;;;12.90;9.27;;;-0.80;99.90;-2.20;98411.00;;;;5034061;28;20452;-83
2021/03/02 02:50:19;;;;;;;13.60;8.60;;;-0.80;99.90;-2.50;98401.00;;;;5022307;28;20464;-83
2021/03/02 02:53:08;;;;;;;13.53;8.43;;;-0.90;99.90;-2.60;98410.00;;;;5032821;28;20892;-83
2021/03/02 02:56:23;;;;;;;12.80;9.10;;;-1.00;99.90;-2.70;98412.00;;;;5033612;28;21012;-84
2021/03/02 02:59:19;;;;;;;16.10;9.90;;;-0.90;99.90;-2.60;98414.00;;;;5017123;28;20471;-83
2021/03/02 03:02:16;;;;;;;15.13;10.03;;;-1.10;99.90;-2.60;98401.00;;;;5054927;28;20454;-82
2021/03/02 03:05:08;;;;;;;12.57;9.20;;;-1.20;99.90;-2.80;98405.00;;;;5038137;28;20443;-84
2021/03/02 03:08:03;;;;;;;16.93;9.17;;;-1.20;99.90;-2.80;98409.00;;;;5052961;28;20442;-84
2021/03/02 03:10:54;;;;;;;14.90;10.43;;;-1.30;99.90;-2.70;98405.00;;;;5048316;28;20480;-84
2021/03/02 03:13:46;;;;;;;18.03;10.17;;;-1.30;99.90;-2.70;98404.00;;;;5035933;28;20433;-84
2021/03/02 03:16:36;;;;;;;14.00;9.40;;;-1.30;99.90;-2.60;98405.00;;;;5030578;28;20461;-83
2021/03/02 03:19:27;;;;;;;15.33;9.87;;;-1.30;99.90;-2.70;98406.00;;;;5029901;28;20432;-83
2021/03/02 03:22:16;;;;;;;21.83;10.00;;;-1.20;99.90;-2.90;98407.00;;;;5031613;28;20976;-82
2021/03/02 03:25:06;;;;;;;18.60;11.93;;;-1.30;99.90;-3.00;98403.00;;;;5034732;28;20507;-83
2021/03/02 03:27:58;;;;;;;22.90;11.00;;;-1.40;99.90;-2.90;98411.00;;;;5033964;28;20812;-83
2021/03/02 03:30:47;;;;;;;17.80;10.00;;;-1.40;99.90;-2.70;98416.00;;;;5032448;28;20474;-82
2021/03/02 03:33:36;;;;;;;18.00;12.40;;;-1.40;99.90;-2.70;98416.00;;;;5033078;28;20463;-83
2021/03/02 03:36:27;;;;;;;18.03;10.30;;;-1.30;99.90;-2.70;98419.00;;;;5033484;28;20447;-83
2021/03/02 03:39:15;;;;;;;18.37;11.20;;;-1.40;99.90;-2.80;98408.00;;;;5032550;28;20450;-83
2021/03/02 03:42:04;;;;;;;13.63;9.20;;;-1.40;99.90;-2.90;98417.00;;;;5024280;28;21035;-84
2021/03/02 03:44:51;;;;;;;15.30;9.47;;;-1.40;99.90;-2.90;98424.00;;;;5033153;28;20432;-83
2021/03/02 03:47:41;;;;;;;19.97;9.97;;;-1.40;99.90;-3.10;98413.00;;;;5034871;28;20444;-83
2021/03/02 03:50:29;;;;;;;19.70;11.77;;;-1.50;99.90;-2.90;98415.00;;;;5031743;28;20452;-83
2021/03/02 03:53:20;;;;;;;18.63;10.67;;;-1.50;99.90;-2.90;98410.00;;;;5027640;28;20468;-83
2021/03/02 03:56:08;;;;;;;16.90;9.20;;;-1.50;99.90;-2.90;98409.00;;;;5033837;28;20508;-82
2021/03/02 03:58:56;;;;;;;17.13;10.23;;;-1.50;99.90;-2.80;98410.00;;;;5022173;28;20437;-83
2021/03/02 04:01:47;;;;;;;21.73;11.27;;;-1.50;99.90;-2.70;98414.00;;;;5033319;28;20490;-83
2021/03/02 04:04:38;;;;;;;16.63;10.57;;;-1.40;99.90;-2.70;98407.00;;;;5033374;28;20488;-83
2021/03/02 04:07:26;;;;;;;18.53;10.50;;;-1.40;99.90;-2.80;98406.00;;;;5033433;28;20465;-84
2021/03/02 04:10:16;;;;;;;21.03;11.90;;;-1.40;99.90;-2.80;98407.00;;;;5032653;28;20424;-83
2021/03/02 04:13:11;;;;;;;19.00;11.53;;;-1.30;99.90;-2.70;98411.00;;;;5033533;28;20429;-82
2021/03/02 04:15:59;;;;;;;13.83;10.93;;;-1.30;99.90;-2.80;98414.00;;;;5029968;28;20451;-83
2021/03/02 04:18:47;;;;;;;16.50;10.23;;;-1.30;99.90;-2.80;98404.00;;;;5032250;28;20452;-84
2021/03/02 04:21:35;;;;;;;19.63;10.40;;;-1.40;99.90;-2.80;98412.00;;;;5027336;28;21036;-83
2021/03/02 04:24:23;;;;;;;13.27;9.63;;;-1.30;99.90;-3.00;98404.00;;;;5022346;28;20437;-83
2021/03/02 04:27:12;;;;;;;20.87;11.10;;;-1.40;99.90;-3.10;98401.00;;;;5033073;28;20953;-83
2021/03/02 04:30:00;;;;;;;16.13;11.57;;;-1.50;99.90;-3.20;98413.00;;;;5031189;28;20540;-84
2021/03/02 04:32:47;;;;;;;18.63;10.37;;;-1.60;99.90;-3.20;98402.00;;;;5032605;28;20467;-83
2021/03/02 04:35:36;;;;;;;13.70;9.40;;;-1.60;99.90;-3.10;98412.00;;;;5031640;28;20869;-82
2021/03/02 04:38:24;;;;;;;21.57;11.77;;;-1.70;99.90;-3.00;98419.00;;;;5032225;28;20440;-83
2021/03/02 04:41:14;;;;;;;16.10;11.23;;;-1.60;99.90;-2.90;98412.00;;;;5028048;28;20468;-83
2021/03/02 04:44:03;;;;;;;19.73;11.50;;;-1.60;99.90;-2.90;98404.00;;;;5032397;28;20447;-82
2021/03/02 04:46:51;;;;;;;15.57;10.23;;;-1.60;99.90;-2.90;98402.00;;;;5032836;28;20937;-83
2021/03/02 04:49:39;;;;;;;21.90;11.70;;;-1.50;99.90;-3.10;98409.00;;;;5028602;28;20430;-82
2021/03/02 04:52:27;;;;;;;15.87;11.10;;;-1.60;99.90;-3.10;98400.00;;;;5031890;28;20479;-82
2021/03/02 04:55:15;;;;;;;17.10;10.97;;;-1.60;99.90;-3.00;98402.00;;;;5032465;28;20432;-82
2021/03/02 04:58:03;;;;;;;21.00;12.43;;;-1.60;99.90;-3.00;98411.00;;;;5032320;28;20828;-81
2021/03/02 05:00:52;;;;;;;15.73;8.93;;;-1.60;99.90;-3.00;98399.00;;;;5026691;28;20463;-84
2021/03/02 05:03:39;;;;;;;19.83;11.50;;;-1.60;99.90;-3.20;98403.00;;;;5031123;28;20439;-83
2021/03/02 05:06:27;;;;;;;14.90;10.40;;;-1.60;99.90;-3.10;98412.00;;;;5027775;28;20437;-83
2021/03/02 05:09:15;;;;;;;15.77;10.20;;;-1.70;99.90;-3.00;98400.00;;;;5028937;28;20806;-83
2021/03/02 05:12:03;;;;;;;20.17;10.83;;;-1.70;99.90;-3.20;98396.00;;;;5026023;28;21012;-82
2021/03/02 05:14:51;;;;;;;19.30;10.43;;;-1.70;99.90;-3.60;98400.00;;;;5032283;28;20458;-82
2021/03/02 05:17:40;;;;;;;21.17;11.10;;;-1.80;99.90;-3.40;98405.00;;;;5025305;28;20441;-81
2021/03/02 05:20:27;;;;;;;13.53;10.60;;;-1.80;99.90;-3.20;98397.00;;;;5026655;28;20553;-81
2021/03/02 05:23:15;;;;;;;16.57;10.73;;;-1.80;99.90;-3.30;98403.00;;;;5026569;28;20429;-83
2021/03/02 05:26:03;;;;;;;14.67;10.73;;;-1.80;99.90;-3.30;98401.00;;;;5026703;28;20425;-82
2021/03/02 05:28:51;;;;;;;21.30;12.60;;;-1.80;99.90;-3.20;98406.00;;;;5040748;28;20463;-82
2021/03/02 05:31:40;;;;;;;20.17;12.37;;;-1.80;99.90;-3.10;98401.00;;;;5036061;28;20486;-82
2021/03/02 05:34:28;;;;;;;24.10;10.80;;;-1.80;99.90;-3.20;98396.00;;;;5037962;28;20425;-81
2021/03/02 05:37:16;;;;;;;13.43;9.60;;;-1.80;99.90;-3.50;98409.00;;;;5037350;28;20432;-80
2021/03/02 05:40:06;;;;;;;20.10;13.00;;;-1.80;99.90;-3.40;98394.00;;;;5030115;28;20948;-82
2021/03/02 05:42:54;;;;;;;16.77;11.40;;;-1.90;99.90;-3.40;98399.00;;;;5025186;28;20745;-82
2021/03/02 05:45:44;;;;;;;18.67;10.60;;;-1.90;99.90;-3.40;98407.00;;;;5025347;28;20839;-82
2021/03/02 05:48:33;;;;;;;22.33;11.90;;;-1.90;99.90;-3.10;98401.00;;;;5024541;28;20437;-81
2021/03/02 05:51:24;;;;;;;19.17;12.00;;;-1.90;99.90;-3.10;98409.00;;;;5025696;28;20887;-80
2021/03/02 05:54:12;;;;;;;13.43;10.60;;;-1.80;99.90;-3.40;98404.00;;;;5033503;28;20467;-80
2021/03/02 05:57:01;;;;;;;17.80;10.93;;;-1.80;99.90;-3.80;98405.00;;;;5032854;28;20428;-80
2021/03/02 05:59:51;;;;;;;17.00;11.10;;;-2.00;99.90;-3.70;98414.00;;;;5019600;28;20798;-81
2021/03/02 06:02:39;;;;;;;17.50;11.87;;;-2.10;99.90;-3.80;98408.00;;;;5020954;28;20460;-80
2021/03/02 06:05:27;;;;;;;19.00;11.17;;;-2.20;99.90;-3.60;98409.00;;;;5038582;28;20424;-79
2021/03/02 06:08:16;;;;;;;18.57;10.93;;;-2.20;99.90;-3.70;98407.00;;;;5047227;28;20448;-81
2021/03/02 06:11:23;;;;;;;15.57;9.07;;;-2.10;99.90;-3.40;98404.00;;;;5035074;28;20469;-80
2021/03/02 06:14:22;;;;;;;18.57;9.47;;;-2.10;99.90;-3.40;98417.00;;;;5037094;28;20440;-80
2021/03/02 06:17:25;;;;;;;20.27;10.93;;;-2.00;99.90;-3.30;98405.00;;;;5043555;28;20436;-79
2021/03/02 06:20:20;;;;;;;23.27;12.37;;;-1.90;99.90;-3.10;98408.00;;;;5041125;28;21027;-82
2021/03/02 06:23:27;;;;;;;18.23;10.13;;;-1.80;99.90;-3.10;98405.00;;;;5034446;28;20432;-82
2021/03/02 06:26:25;;;;;;;19.00;9.33;;;-1.60;99.90;-3.00;98408.00;;;;5022587;28;20475;-82
2021/03/02 06:29:14;;;;;;;20.60;14.23;;;-1.70;99.90;-3.00;98416.00;;;;5038683;28;20451;-82
2021/03/02 06:32:02;;;;;;;27.60;15.47;;;-1.70;99.90;-3.00;98400.00;;;;5026448;28;20475;-81
2021/03/02 06:34:50;;;;;;;48.03;22.93;;;-1.60;99.90;-2.90;98404.00;;;;5029009;28;20494;-82
2021/03/02 06:37:43;;;;;;;35.63;21.03;;;-1.60;99.90;-2.80;98405.00;;;;5028098;28;20804;-82
2021/03/02 06:40:39;;;;;;;42.37;22.50;;;-2.10;99.90;-2.70;98421.00;;;;5023946;28;20449;-82
2021/03/02 06:43:33;;;;;;;45.57;20.90;;;-1.40;99.90;-2.70;98412.00;;;;5041225;28;20440;-81
2021/03/02 06:46:20;;;;;;;39.60;19.83;;;-1.30;99.90;-2.60;98412.00;;;;5043152;28;20424;-82
2021/03/02 06:49:09;;;;;;;19.27;13.30;;;-1.30;99.90;-2.90;98412.00;;;;5032722;28;20449;-82
2021/03/02 06:52:16;;;;;;;27.93;13.00;;;-1.30;99.90;-2.90;98409.00;;;;5030221;28;20847;-81
2021/03/02 06:55:21;;;;;;;16.33;10.23;;;-1.30;99.90;-2.70;98411.00;;;;5031368;28;20489;-81
2021/03/02 06:58:18;;;;;;;16.50;10.43;;;-1.30;99.90;-2.70;98399.00;;;;5021249;28;20429;-81
2021/03/02 07:01:06;;;;;;;21.87;13.07;;;-2.90;99.90;-2.50;98407.00;;;;5032987;28;20466;-81
2021/03/02 07:04:09;;;;;;;37.10;19.70;;;-1.20;99.90;-2.40;98403.00;;;;5040555;28;20424;-82
2021/03/02 07:06:58;;;;;;;49.63;24.57;;;-1.20;99.90;-2.20;98406.00;;;;5035427;28;20458;-82
2021/03/02 07:09:46;;;;;;;25.30;14.13;;;-1.00;99.90;-2.20;98418.00;;;;5038385;28;20456;-82
2021/03/02 07:12:36;;;;;;;19.47;13.53;;;-0.90;99.90;-2.20;98417.00;;;;5018428;28;20473;-81
2021/03/02 07:15:26;;;;;;;19.30;13.53;;;-0.90;99.90;-2.10;98423.00;;;;5029455;28;20466;-82
2021/03/02 07:18:17;;;;;;;21.87;13.40;;;-0.80;99.90;-2.00;98416.00;;;;5024229;28;20448;-82
2021/03/02 07:21:05;;;;;;;21.17;10.63;;;-0.70;99.90;-1.80;98414.00;;;;5021908;28;20456;-82
2021/03/02 07:23:55;;;;;;;18.77;12.30;;;-0.60;99.90;-1.60;98428.00;;;;5027285;28;20436;-82
2021/03/02 07:26:44;;;;;;;27.87;12.67;;;-0.50;99.90;-1.40;98423.00;;;;5025544;28;20816;-80
2021/03/02 07:29:35;;;;;;;21.83;11.27;;;-0.30;99.90;-1.20;98433.00;;;;5029159;28;20468;-81
2021/03/02 07:32:23;;;;;;;21.27;13.63;;;-0.20;99.90;-1.30;98419.00;;;;5025102;28;20472;-81
2021/03/02 07:35:18;;;;;;;25.63;11.23;;;-0.10;99.90;-1.20;98421.00;;;;5025373;28;20443;-81
2021/03/02 07:38:18;;;;;;;19.80;11.87;;;0.00;99.90;-1.10;98420.00;;;;5025549;28;20957;-82
2021/03/02 07:41:07;;;;;;;20.80;10.97;;;0.10;99.90;-0.90;98427.00;;;;5025449;28;20448;-83
2021/03/02 07:43:54;;;;;;;17.67;11.13;;;0.20;99.90;-0.70;98418.00;;;;5026135;28;20410;-83
2021/03/02 07:46:53;;;;;;;16.73;10.40;;;0.30;99.90;-0.70;98424.00;;;;5025691;28;20448;-82
2021/03/02 07:49:42;;;;;;;20.77;11.80;;;0.90;99.90;-0.40;98430.00;;;;5029814;28;20949;-83
2021/03/02 07:52:30;;;;;;;18.93;11.60;;;0.90;99.90;-0.10;98437.00;;;;5030778;28;20468;-83
2021/03/02 07:55:23;;;;;;;15.50;9.90;;;0.80;99.90;0.00;98436.00;;;;5032993;28;20432;-83
2021/03/02 07:58:16;;;;;;;19.20;13.20;;;1.00;99.90;0.20;98436.00;;;;5024302;28;20437;-83
2021/03/02 08:01:18;;;;;;;13.57;10.17;;;1.10;99.90;0.50;98442.00;;;;5029253;28;20459;-84
2021/03/02 08:04:26;;;;;;;14.37;10.60;;;1.30;99.90;0.70;98445.00;;;;5027451;28;20463;-83
2021/03/02 08:07:24;;;;;;;15.57;10.17;;;1.60;99.90;1.10;98452.00;;;;5024898;28;20436;-84
2021/03/02 08:10:34;;;;;;;20.53;10.17;;;2.60;99.90;1.00;98448.00;;;;5031948;28;20437;-84
2021/03/02 08:13:34;;;;;;;15.87;10.73;;;2.00;99.90;1.30;98451.00;;;;5023154;28;20429;-84
2021/03/02 08:16:57;;;;;;;24.10;11.43;;;2.20;99.90;1.60;98455.00;;;;5025829;28;20445;-84
2021/03/02 08:19:48;;;;;;;22.67;10.70;;;2.40;99.90;1.70;98453.00;;;;5024132;28;20425;-84
2021/03/02 08:23:00;;;;;;;17.20;10.77;;;2.70;99.90;1.80;98448.00;;;;5025403;28;20464;-84
2021/03/02 08:25:50;;;;;;;20.50;11.60;;;2.70;99.90;2.20;98450.00;;;;5021066;28;20945;-85
2021/03/02 08:28:38;;;;;;;26.10;11.87;;;2.90;99.90;2.40;98447.00;;;;5033476;28;20528;-84
2021/03/02 08:31:26;;;;;;;17.70;11.10;;;3.10;99.90;2.90;98446.00;;;;5026911;28;20539;-83
2021/03/02 08:34:17;;;;;;;17.03;11.03;;;3.40;99.90;3.40;98450.00;;;;5032455;28;20437;-83
2021/03/02 08:37:05;;;;;;;14.40;9.30;;;3.70;99.90;3.80;98462.00;;;;5020329;28;20460;-83
2021/03/02 08:39:54;;;;;;;13.53;8.37;;;4.10;99.90;4.20;98470.00;;;;5030217;28;20428;-85
2021/03/02 08:43:05;;;;;;;14.90;9.17;;;4.40;99.90;4.50;98456.00;;;;5032440;28;20479;-85
2021/03/02 08:45:56;;;;;;;19.40;9.83;;;4.80;99.90;4.90;98466.00;;;;5033658;28;20968;-84
2021/03/02 08:48:53;;;;;;;18.40;8.77;;;5.20;99.90;5.00;98472.00;;;;5045204;28;20444;-86
2021/03/02 08:51:41;;;;;;;33.50;10.50;;;5.50;99.90;5.20;98466.00;;;;5034419;28;20820;-85
2021/03/02 08:54:29;;;;;;;15.73;9.03;;;5.70;99.90;5.40;98466.00;;;;5032328;28;20502;-84
2021/03/02 08:57:18;;;;;;;17.17;9.20;;;5.90;99.90;5.60;98475.00;;;;5029798;28;20480;-86
2021/03/02 09:00:15;;;;;;;13.33;7.70;;;6.10;99.90;5.80;98469.00;;;;5027239;28;20206;-85
2021/03/02 09:03:03;;;;;;;11.27;7.73;;;6.40;99.90;6.10;98469.00;;;;5019917;28;20209;-84
2021/03/02 09:06:12;;;;;;;13.13;8.47;;;6.60;99.90;6.40;98469.00;;;;5029150;28;20209;-85
2021/03/02 09:09:03;;;;;;;17.53;8.70;;;6.80;99.90;6.50;98466.00;;;;5032984;28;20201;-84
2021/03/02 09:11:54;;;;;;;21.23;10.27;;;7.00;99.90;6.70;98474.00;;;;5034064;28;20237;-86
2021/03/02 09:14:43;;;;;;;14.13;8.40;;;7.20;99.90;6.80;98475.00;;;;5033308;28;20209;-86
2021/03/02 09:17:31;;;;;;;11.60;7.77;;;7.40;99.90;7.10;98477.00;;;;5032837;28;20201;-83
2021/03/02 09:20:19;;;;;;;12.30;8.30;;;7.50;99.90;7.20;98476.00;;;;5037768;28;20201;-85
2021/03/02 09:23:07;;;;;;;13.70;8.80;;;7.70;99.90;7.40;98466.00;;;;5029221;28;20225;-85
2021/03/02 09:25:55;;;;;;;10.13;7.80;;;7.90;99.90;7.60;98477.00;;;;5025810;28;20205;-83
2021/03/02 09:28:44;;;;;;;22.93;8.20;;;8.30;99.90;7.70;98464.00;;;;5031456;28;20236;-85
2021/03/02 09:31:33;;;;;;;12.40;7.23;;;8.30;99.90;8.00;98473.00;;;;5027586;28;20229;-83
2021/03/02 09:34:34;;;;;;;15.33;8.73;;;8.50;99.90;8.40;98478.00;;;;5031339;28;20210;-84
2021/03/02 09:37:25;;;;;;;13.50;7.53;;;8.70;99.90;8.50;98477.00;;;;5025509;28;20750;-84
2021/03/02 09:40:16;;;;;;;9.33;6.87;;;8.90;99.90;8.70;98474.00;;;;5026620;28;20213;-85
2021/03/02 09:43:09;;;;;;;12.30;7.57;;;9.10;99.90;9.00;98471.00;;;;5026129;28;20237;-84
2021/03/02 09:45:57;;;;;;;9.83;6.83;;;9.30;99.10;9.20;98471.00;;;;5024029;28;20212;-85
2021/03/02 09:48:47;;;;;;;12.27;7.17;;;9.50;96.80;9.40;98477.00;;;;5022191;28;20280;-84
2021/03/02 09:51:35;;;;;;;11.87;7.10;;;9.70;94.30;9.80;98480.00;;;;5021305;28;20236;-85
2021/03/02 09:54:23;;;;;;;10.10;7.43;;;10.00;93.10;9.90;98478.00;;;;5027221;28;20197;-85
2021/03/02 09:57:12;;;;;;;12.43;7.27;;;10.20;92.20;10.20;98481.00;;;;5040820;28;20208;-84
2021/03/02 10:00:09;;;;;;;10.70;7.50;;;10.40;92.30;10.20;98477.00;;;;5030733;28;20206;-86
2021/03/02 10:03:00;;;;;;;10.23;6.87;;;10.60;90.20;10.40;98472.00;;;;5043023;28;20612;-85
2021/03/02 10:05:57;;;;;;;11.00;6.23;;;10.80;88.80;10.70;98478.00;;;;5042586;28;20211;-85
2021/03/02 10:08:48;;;;;;;13.50;6.67;;;11.00;87.20;10.30;98474.00;;;;5043293;28;20724;-86
2021/03/02 10:11:39;;;;;;;13.20;6.97;;;11.10;80.80;10.70;98472.00;;;;5032039;28;20225;-86
2021/03/02 10:14:37;;;;;;;10.73;6.23;;;11.10;82.50;11.00;98469.00;;;;5035372;28;20213;-84
2021/03/02 10:17:35;;;;;;;10.70;6.43;;;11.30;80.40;11.30;98469.00;;;;5044093;28;20591;-86
2021/03/02 10:20:32;;;;;;;9.20;6.63;;;11.50;78.90;11.60;98462.00;;;;5038981;28;20213;-86
2021/03/02 10:23:28;;;;;;;8.00;5.87;;;11.70;78.20;11.40;98459.00;;;;5051592;28;20210;-87
2021/03/02 10:26:22;;;;;;;9.97;6.73;;;11.80;75.40;12.00;98462.00;;;;5029714;28;20600;-84
2021/03/02 10:29:11;;;;;;;9.77;7.90;;;12.00;75.70;12.20;98465.00;;;;5032182;28;20194;-85
2021/03/02 10:32:00;;;;;;;11.77;7.10;;;12.20;75.20;12.20;98471.00;;;;5033494;28;20605;-86
2021/03/02 10:34:48;;;;;;;8.43;6.87;;;12.40;73.40;12.40;98458.00;;;;5039485;28;20201;-86
2021/03/02 10:37:35;;;;;;;9.83;6.27;;;12.60;72.20;12.50;98459.00;;;;5042851;28;20208;-86
2021/03/02 10:40:24;;;;;;;10.17;7.17;;;12.80;70.30;13.00;98452.00;;;;5041968;28;20476;-84
2021/03/02 10:43:12;;;;;;;11.43;6.87;;;13.00;71.00;13.10;98456.00;;;;5043077;28;21114;-86
2021/03/02 10:46:00;;;;;;;11.10;7.27;;;13.20;69.40;13.30;98456.00;;;;5043707;28;20348;-86
2021/03/02 10:48:49;;;;;;;10.57;5.57;;;13.50;68.70;13.70;98452.00;;;;5044078;28;20229;-88
2021/03/02 10:51:41;;;;;;;10.67;5.77;;;14.00;64.80;14.20;98457.00;;;;5041682;28;20220;-86
2021/03/02 10:54:30;;;;;;;9.27;6.17;;;14.40;64.20;14.50;98450.00;;;;5039761;28;20214;-88
2021/03/02 10:57:19;;;;;;;11.53;6.33;;;14.90;61.00;15.00;98441.00;;;;5047516;28;20215;-87
2021/03/02 11:00:08;;;;;;;11.50;5.87;;;15.20;60.50;14.20;98432.00;;;;5041588;28;20584;-86
2021/03/02 11:02:58;;;;;;;13.97;7.00;;;15.40;58.00;14.60;98427.00;;;;5041892;28;20226;-85
2021/03/02 11:05:47;;;;;;;12.47;7.03;;;15.60;57.90;15.30;98428.00;;;;5047463;28;20221;-87
2021/03/02 11:08:35;;;;;;;9.40;5.73;;;15.80;58.00;15.60;98421.00;;;;5037169;28;20201;-86
2021/03/02 11:11:24;;;;;;;14.47;6.60;;;16.10;56.20;15.80;98422.00;;;;5030177;28;20267;-86
2021/03/02 11:14:13;;;;;;;8.70;5.40;;;16.40;55.10;16.40;98421.00;;;;5045674;28;20207;-85
2021/03/02 11:17:00;;;;;;;12.90;5.90;;;16.60;55.70;17.10;98405.00;;;;5046177;28;20555;-86
2021/03/02 11:19:49;;;;;;;9.23;5.77;;;17.10;55.70;17.40;98409.00;;;;5031443;28;20217;-88
2021/03/02 11:22:37;;;;;;;9.00;5.70;;;17.50;54.30;17.20;98403.00;;;;5038742;28;20222;-87
2021/03/02 11:25:25;;;;;;;10.70;6.03;;;17.90;52.60;18.10;98405.00;;;;5038073;28;20742;-88
2021/03/02 11:28:13;;;;;;;11.20;6.50;;;18.30;53.20;18.30;98400.00;;;;5035552;28;20662;-85
2021/03/02 11:31:06;;;;;;;11.90;5.30;;;18.80;51.10;18.30;98397.00;;;;5033097;28;20596;-87
2021/03/02 11:33:53;;;;;;;7.70;5.57;;;18.90;50.80;17.90;98388.00;;;;5032619;28;20202;-88
2021/03/02 11:36:41;;;;;;;8.67;5.53;;;18.90;50.10;17.90;98394.00;;;;5037889;28;20225;-86
2021/03/02 11:39:29;;;;;;;11.03;6.00;;;18.80;49.90;18.00;98390.00;;;;5034017;28;20198;-88
2021/03/02 11:42:17;;;;;;;10.23;6.03;;;19.00;49.40;18.30;98383.00;;;;5033501;28;20217;-87
2021/03/02 11:45:07;;;;;;;8.40;5.53;;;19.30;49.60;18.30;98379.00;;;;5031802;28;20213;-88
2021/03/02 11:47:58;;;;;;;11.37;6.63;;;19.30;49.10;18.50;98382.00;;;;5035902;28;20216;-88
2021/03/02 11:50:45;;;;;;;10.93;6.53;;;19.40;48.80;18.60;98378.00;;;;5037840;28;20228;-86
2021/03/02 11:53:34;;;;;;;11.30;6.57;;;19.50;48.40;17.30;98358.00;;;;5033352;28;20278;-85
2021/03/02 11:56:22;;;;;;;8.47;6.37;;;19.50;47.70;18.10;98366.00;;;;5042541;28;20209;-87
2021/03/02 11:59:10;;;;;;;9.03;5.93;;;19.20;48.70;18.30;98366.00;;;;5040189;28;20572;-87
2021/03/02 12:01:57;;;;;;;12.00;6.93;;;19.30;48.20;18.00;98353.00;;;;5042082;28;20229;-87
2021/03/02 12:04:46;;;;;;;8.27;6.57;;;19.40;48.10;18.20;98351.00;;;;5032324;28;20288;-87
2021/03/02 12:07:35;;;;;;;10.07;7.23;;;19.50;48.10;19.00;98346.00;;;;5040866;28;20210;-89
2021/03/02 12:10:23;;;;;;;8.10;6.63;;;19.80;47.30;18.90;98349.00;;;;5036626;28;20212;-87
2021/03/02 12:13:11;;;;;;;10.37;7.90;;;19.80;47.40;19.00;98347.00;;;;5028666;28;20206;-85
2021/03/02 12:16:00;;;;;;;11.73;7.90;;;19.80;47.70;19.20;98346.00;;;;5015156;28;20230;-87
2021/03/02 12:18:47;;;;;;;12.03;6.90;;;19.90;47.50;18.80;98337.00;;;;5024643;28;20229;-88
2021/03/02 12:21:38;;;;;;;10.33;7.73;;;19.90;46.80;19.00;98335.00;;;;5023949;28;20241;-85
2021/03/02 12:24:26;;;;;;;10.60;8.23;;;19.60;47.60;19.40;98334.00;;;;5027018;28;20205;-87
2021/03/02 12:27:15;;;;;;;12.30;7.80;;;19.80;47.80;20.00;98338.00;;;;5028487;28;20586;-86
2021/03/02 12:30:05;;;;;;;9.83;7.50;;;20.20;47.80;19.80;98335.00;;;;5027809;28;20194;-87